キンシャサ の空港の天気 - METARとTAF

キンシャサ/ヌジリ国際空港 ( FZAA / FIH ) - コンゴ民主共和国 キンシャサ
飛行場実況気象(Metar)
観測時間01/23 00:00 WAT (01/22 23:00 UTC)
風向・風速西南西 4m/s
視程10km以上
天気現象
全天の8割程度の雲 雲底高度 490m
気温26℃
湿度74%
気圧1012hPa
METARFZAA 222300Z 24008KT 9999 BKN016 26/21 Q1012 NOSIG
過去の天気等 Google飛行場航空写真 Wunderground天気予報

過去48時間のMETAR

飛行場予報(TAF)
発表時間: 1/23 00:00 WAT (1/22 23:00 UTC)
予報対象時間: 23日1時 WAT ~ 24日7時 WAT
風向・風速南西 2m/s
視程7,000m
全天の8割程度の雲 雲底高度 490m
少しの積乱雲 雲底高度 850m
23日2時 WAT ~ 23日5時 WAT に一時的に
風向・風速東北東 4m/s 瞬間風速 11m/s
視程4,000m
天気現象雷雨
全天の4割程度の雲 雲底高度 430m
全天の4割程度の積乱雲 雲底高度 790m
23日7時 WAT ~ 23日9時 WAT に徐々に
全天の8割程度の雲 雲底高度 460m
23日12時 WAT ~ 23日14時 WAT に徐々に
風向・風速北北西 5m/s
全天の4割程度の雲 雲底高度 700m
少しの積乱雲 雲底高度 910m
23日23時 WAT ~ 24日1時 WAT に徐々に
風向・風速南南西 2m/s
全天の4割程度の雲 雲底高度 490m
TAF FZAA 222300Z 2300/2406 23004KT 7000 BKN016 FEW028CB
TEMPO 2301/2304 06008G22KT 4000 TSRA SCT014 SCT026CB
BECMG 2306/2308 BKN015
BECMG 2311/2313 33010KT SCT023 FEW030CB
BECMG 2322/2400 20004KT SCT016